Time;durP1;ratioP1;P1;durP2;ratioP2;P2;SDS_P1;SDS_P2;PMS_P1;PMS_P2;Temp;Humidity;BMP_temperature;BMP_pressure;BME280_temperature;BME280_humidity;BME280_pressure;Samples;Min_cycle;Max_cycle;Signal;HPM_P1;HPM_P2
2022/03/08 00:00:12;;;;;;;14.23;12.77;;;;;;;1.18;75.23;101270.38;5055503;28;20201;-78
2022/03/08 00:02:38;;;;;;;14.67;13.17;;;;;;;1.11;75.66;101258.16;5055555;28;20199;-78
2022/03/08 00:05:06;;;;;;;14.30;12.87;;;;;;;1.04;76.36;101255.34;5054954;28;20210;-77
2022/03/08 00:07:32;;;;;;;13.50;12.20;;;;;;;0.92;76.01;101248.97;5055749;28;20327;-78
2022/03/08 00:10:00;;;;;;;14.13;12.57;;;;;;;0.95;76.91;101235.31;5055384;28;20265;-78
2022/03/08 00:12:26;;;;;;;16.10;12.83;;;;;;;1.01;76.11;101232.94;5054924;28;20708;-78
2022/03/08 00:14:53;;;;;;;14.00;12.63;;;;;;;1.03;76.04;101236.47;5048700;28;20623;-78
2022/03/08 00:17:19;;;;;;;13.70;12.40;;;;;;;1.06;75.77;101236.56;5045925;28;20222;-77
2022/03/08 00:19:46;;;;;;;14.17;12.77;;;;;;;1.09;75.85;101235.78;5054282;28;20220;-77
2022/03/08 00:22:13;;;;;;;15.73;14.20;;;;;;;1.12;76.43;101229.03;5054130;28;20256;-77
2022/03/08 00:24:40;;;;;;;15.70;13.33;;;;;;;1.16;75.99;101230.88;5053974;28;20666;-78
2022/03/08 00:27:08;;;;;;;15.97;14.17;;;;;;;1.18;75.97;101234.38;5053480;28;20706;-78
2022/03/08 00:29:34;;;;;;;14.33;12.93;;;;;;;1.25;75.28;101242.28;5056683;28;20231;-77
2022/03/08 00:32:01;;;;;;;13.93;12.50;;;;;;;1.00;75.57;101251.78;5058351;28;20207;-77
2022/03/08 00:34:27;;;;;;;14.00;12.70;;;;;;;0.86;75.98;101241.03;5057983;28;20640;-77
2022/03/08 00:36:54;;;;;;;15.17;13.50;;;;;;;0.90;76.37;101226.59;5057677;28;20212;-78
2022/03/08 00:39:20;;;;;;;13.80;12.23;;;;;;;0.93;76.53;101222.44;5057621;28;20232;-77
2022/03/08 00:41:47;;;;;;;14.40;13.10;;;;;;;0.89;75.88;101228.31;5057833;28;20625;-77
2022/03/08 00:44:14;;;;;;;13.47;12.10;;;;;;;0.78;76.54;101221.94;5050811;28;20212;-77
2022/03/08 00:46:41;;;;;;;13.77;12.27;;;;;;;0.75;77.00;101207.28;5037654;28;20274;-77
2022/03/08 00:49:07;;;;;;;13.67;11.67;;;;;;;0.67;77.39;101208.72;5037178;28;20234;-77
2022/03/08 00:51:34;;;;;;;14.17;12.73;;;;;;;0.54;78.07;101194.59;5036781;28;20264;-77
2022/03/08 00:54:00;;;;;;;13.40;12.10;;;;;;;0.60;77.10;101178.50;5037055;28;20458;-77
2022/03/08 00:56:27;;;;;;;12.10;10.90;;;;;;;0.61;77.50;101177.69;5036893;28;20265;-76
2022/03/08 00:58:53;;;;;;;12.40;11.20;;;;;;;0.72;77.35;101180.63;5037133;28;20228;-77
2022/03/08 01:01:21;;;;;;;14.80;10.80;;;;;;;0.74;76.36;101192.69;5036798;28;20723;-77
2022/03/08 01:03:47;;;;;;;11.70;10.67;;;;;;;0.72;76.97;101196.03;5037357;28;20209;-77
2022/03/08 01:06:14;;;;;;;10.10;9.10;;;;;;;0.76;77.08;101197.88;5038747;28;20213;-77
2022/03/08 01:08:40;;;;;;;9.97;9.07;;;;;;;0.70;76.87;101201.13;5040536;28;20366;-77
2022/03/08 01:11:07;;;;;;;9.87;8.93;;;;;;;0.71;76.38;101199.41;5040173;28;20212;-77
2022/03/08 01:13:33;;;;;;;10.00;9.00;;;;;;;0.75;76.73;101207.28;5039277;28;20236;-77
2022/03/08 01:16:00;;;;;;;10.77;9.77;;;;;;;0.75;76.50;101212.44;5046081;28;20606;-77
2022/03/08 01:18:28;;;;;;;10.70;9.63;;;;;;;0.73;76.13;101202.91;5054674;28;20296;-76
2022/03/08 01:20:54;;;;;;;13.33;9.67;;;;;;;0.72;76.66;101206.31;5056345;28;20227;-77
2022/03/08 01:23:20;;;;;;;11.63;10.43;;;;;;;0.71;76.77;101194.28;5056750;28;20204;-77
2022/03/08 01:25:47;;;;;;;9.80;8.80;;;;;;;0.59;75.93;101208.47;5056365;28;20255;-76
2022/03/08 01:28:13;;;;;;;11.37;10.00;;;;;;;0.51;76.22;101207.31;5055733;28;20230;-77
2022/03/08 01:30:40;;;;;;;11.50;10.40;;;;;;;0.52;76.49;101210.78;5055670;28;20203;-77
2022/03/08 01:33:06;;;;;;;10.50;9.47;;;;;;;0.44;76.97;101199.34;5055418;28;20281;-76
2022/03/08 01:35:34;;;;;;;10.53;9.57;;;;;;;0.44;76.71;101187.41;5055790;28;20214;-76
2022/03/08 01:38:01;;;;;;;10.50;9.50;;;;;;;0.50;76.79;101202.16;5055300;28;20283;-76
2022/03/08 01:40:27;;;;;;;11.07;9.97;;;;;;;0.44;76.29;101209.63;5054996;28;20670;-76
2022/03/08 01:42:54;;;;;;;11.00;9.80;;;;;;;0.39;75.45;101215.47;5054852;28;20665;-76
2022/03/08 01:45:22;;;;;;;10.57;9.53;;;;;;;0.34;76.22;101208.44;5046961;28;20204;-77
2022/03/08 01:47:49;;;;;;;10.33;9.33;;;;;;;0.23;76.67;101205.47;5047667;28;20307;-76
2022/03/08 01:50:16;;;;;;;11.27;9.43;;;;;;;0.17;76.81;101197.56;5054368;28;20259;-76
2022/03/08 01:52:44;;;;;;;10.30;9.40;;;;;;;0.18;76.58;101196.75;5054721;28;20283;-76
2022/03/08 01:55:12;;;;;;;9.33;8.43;;;;;;;0.09;76.64;101194.72;5054599;28;20205;-76
2022/03/08 01:57:39;;;;;;;10.53;9.53;;;;;;;0.03;77.40;101186.81;5054318;28;20715;-76
2022/03/08 02:00:09;;;;;;;10.63;9.60;;;;;;;0.10;76.79;101187.88;5054206;28;20212;-76
2022/03/08 02:02:35;;;;;;;10.57;9.57;;;;;;;0.17;76.43;101184.72;5054440;28;20213;-76
2022/03/08 02:05:02;;;;;;;11.30;10.20;;;;;;;0.00;77.19;101191.84;5054387;28;20239;-76
2022/03/08 02:07:28;;;;;;;9.70;8.80;;;;;;;-0.02;77.02;101181.53;5054095;28;20228;-76
2022/03/08 02:09:56;;;;;;;10.07;9.07;;;;;;;-0.13;78.03;101175.13;5053806;28;20210;-76
2022/03/08 02:12:22;;;;;;;9.30;8.50;;;;;;;-0.02;77.39;101171.25;5054193;28;20263;-76
2022/03/08 02:14:49;;;;;;;10.13;9.13;;;;;;;-0.03;77.54;101171.19;5046859;28;20229;-76
2022/03/08 02:17:15;;;;;;;10.03;9.10;;;;;;;-0.09;77.26;101170.97;5045713;28;20194;-76
2022/03/08 02:19:42;;;;;;;10.47;9.37;;;;;;;-0.03;77.31;101171.19;5053800;28;20257;-76
2022/03/08 02:22:10;;;;;;;9.00;8.20;;;;;;;0.04;77.03;101174.84;5053712;28;20685;-76
2022/03/08 02:24:36;;;;;;;8.70;7.97;;;;;;;0.06;76.94;101181.81;5053822;28;20273;-76
2022/03/08 02:27:03;;;;;;;8.20;7.40;;;;;;;0.04;76.39;101187.66;5053546;28;20735;-76
2022/03/08 02:29:29;;;;;;;7.97;7.27;;;;;;;0.01;76.48;101193.56;5053537;28;20257;-76
2022/03/08 02:31:56;;;;;;;8.37;7.57;;;;;;;0.01;76.61;101185.88;5053518;28;20672;-76
2022/03/08 02:34:23;;;;;;;8.87;7.93;;;;;;;0.03;76.31;101189.38;5053631;28;20278;-76
2022/03/08 02:37:01;;;;;;;9.07;8.07;;;;;;;-0.12;76.61;101191.38;5053366;28;20237;-76
2022/03/08 02:39:29;;;;;;;9.73;8.90;;;;;;;-0.16;77.08;101185.25;5053397;28;20213;-76
2022/03/08 02:41:55;;;;;;;8.93;8.13;;;;;;;-0.11;77.16;101181.19;5053179;28;20614;-76
2022/03/08 02:44:21;;;;;;;9.33;8.37;;;;;;;0.01;76.40;101183.31;5046931;28;20209;-76
2022/03/08 02:46:48;;;;;;;9.83;8.93;;;;;;;0.02;76.25;101190.22;5044843;28;20740;-76
2022/03/08 02:49:15;;;;;;;10.13;9.13;;;;;;;0.03;76.33;101186.81;5053222;28;20251;-76
2022/03/08 02:51:41;;;;;;;11.20;9.87;;;;;;;0.10;76.02;101188.78;5052742;28;20612;-76
2022/03/08 02:54:08;;;;;;;10.53;9.43;;;;;;;0.02;76.39;101200.47;5053018;28;20280;-76
2022/03/08 02:56:35;;;;;;;9.80;8.90;;;;;;;0.06;76.34;101189.50;5052963;28;20691;-76
2022/03/08 02:59:02;;;;;;;13.43;10.47;;;;;;;-0.05;77.19;101191.66;5053193;28;20222;-76
2022/03/08 03:01:28;;;;;;;15.67;11.73;;;;;;;0.02;76.63;101179.94;5053161;28;20353;-76
2022/03/08 03:03:55;;;;;;;16.40;12.70;;;;;;;0.06;76.98;101181.81;5053192;28;20203;-76
2022/03/08 03:06:21;;;;;;;13.00;11.70;;;;;;;0.09;76.76;101187.03;5052776;28;20747;-76
2022/03/08 03:08:48;;;;;;;12.47;10.87;;;;;;;-0.08;77.39;101178.72;5052825;28;20233;-76
2022/03/08 03:11:15;;;;;;;12.23;10.97;;;;;;;-0.11;77.05;101168.34;5052596;28;20663;-76
2022/03/08 03:13:43;;;;;;;11.93;10.83;;;;;;;-0.16;77.12;101164.72;5050575;28;20222;-76
2022/03/08 03:16:09;;;;;;;13.00;11.60;;;;;;;-0.24;76.97;101167.03;5041141;28;20254;-76
2022/03/08 03:18:35;;;;;;;13.57;10.13;;;;;;;-0.20;76.85;101168.00;5052083;28;20287;-76
2022/03/08 03:21:02;;;;;;;10.83;9.83;;;;;;;-0.20;76.73;101173.13;5052361;28;20676;-76
2022/03/08 03:23:28;;;;;;;9.63;8.73;;;;;;;-0.25;76.58;101184.94;5052394;28;20206;-76
2022/03/08 03:25:55;;;;;;;9.87;9.07;;;;;;;-0.26;76.76;101194.34;5052749;28;20267;-75
2022/03/08 03:28:21;;;;;;;9.73;8.73;;;;;;;-0.24;76.28;101197.81;5052589;28;20230;-76
2022/03/08 03:30:49;;;;;;;10.07;9.13;;;;;;;-0.33;76.41;101197.47;5052428;28;20206;-76
2022/03/08 03:33:15;;;;;;;11.77;10.07;;;;;;;-0.39;77.14;101192.13;5052363;28;20280;-76
2022/03/08 03:35:42;;;;;;;9.53;8.63;;;;;;;-0.48;77.59;101179.81;5052284;28;20679;-76
2022/03/08 03:38:08;;;;;;;10.57;9.57;;;;;;;-0.50;77.49;101166.03;5052081;28;20716;-76
2022/03/08 03:40:34;;;;;;;9.97;8.93;;;;;;;-0.61;77.86;101165.66;5052316;28;20262;-76
2022/03/08 03:43:01;;;;;;;9.57;8.77;;;;;;;-0.75;78.69;101147.97;5052454;28;20208;-76
2022/03/08 03:45:27;;;;;;;11.13;8.60;;;;;;;-0.77;78.98;101134.22;5043628;28;20286;-76
2022/03/08 03:47:55;;;;;;;9.50;8.50;;;;;;;-0.74;78.78;101121.56;5045901;28;20223;-75
2022/03/08 03:50:22;;;;;;;9.20;8.30;;;;;;;-0.72;79.38;101122.47;5051912;28;20619;-76
2022/03/08 03:52:48;;;;;;;8.60;7.80;;;;;;;-0.67;79.51;101118.41;5052120;28;20208;-76
2022/03/08 03:55:15;;;;;;;9.13;8.20;;;;;;;-0.77;79.34;101114.63;5052252;28;20226;-76
2022/03/08 03:57:42;;;;;;;10.67;9.67;;;;;;;-0.70;80.30;101100.34;5052057;28;20226;-76
2022/03/08 04:00:12;;;;;;;9.70;8.80;;;;;;;-0.63;80.17;101104.91;5051894;28;20240;-76
2022/03/08 04:02:39;;;;;;;8.60;7.80;;;;;;;-0.51;79.67;101110.47;5051786;28;20288;-76
2022/03/08 04:05:07;;;;;;;8.33;7.53;;;;;;;-0.54;79.19;101114.59;5051419;28;20617;-76
2022/03/08 04:07:33;;;;;;;10.13;9.03;;;;;;;-0.71;79.76;101125.09;5051981;28;20241;-76
2022/03/08 04:10:00;;;;;;;9.67;8.67;;;;;;;-0.70;79.85;101115.72;5051827;28;20256;-76
2022/03/08 04:12:26;;;;;;;9.53;8.63;;;;;;;-0.65;79.97;101103.97;5052021;28;20206;-76
2022/03/08 04:14:53;;;;;;;10.63;9.07;;;;;;;-0.71;80.22;101094.34;5044944;28;20218;-76
2022/03/08 04:17:19;;;;;;;10.73;9.63;;;;;;;-0.67;80.11;101100.47;5043385;28;20219;-76
2022/03/08 04:19:46;;;;;;;9.97;8.80;;;;;;;-0.65;80.08;101098.84;5051493;28;20214;-76
2022/03/08 04:22:13;;;;;;;10.13;9.13;;;;;;;-0.66;79.60;101110.75;5051861;28;20211;-76
2022/03/08 04:24:40;;;;;;;9.23;8.33;;;;;;;-0.63;79.56;101104.91;5051864;28;20275;-76
2022/03/08 04:27:06;;;;;;;10.10;9.10;;;;;;;-0.66;79.76;101108.19;5051676;28;20217;-76
2022/03/08 04:29:33;;;;;;;10.87;9.87;;;;;;;-0.56;79.58;101104.28;5051658;28;20202;-76
2022/03/08 04:31:59;;;;;;;10.50;9.50;;;;;;;-0.50;79.54;101104.50;5051556;28;20260;-76
2022/03/08 04:34:26;;;;;;;10.07;9.13;;;;;;;-0.52;79.54;101108.69;5051325;28;20278;-76
2022/03/08 04:36:52;;;;;;;10.03;9.13;;;;;;;-0.44;79.71;101111.56;5052069;28;20206;-76
2022/03/08 04:39:20;;;;;;;9.67;8.67;;;;;;;-0.40;79.61;101113.41;5051415;28;20730;-76
2022/03/08 04:41:47;;;;;;;10.13;9.23;;;;;;;-0.33;79.32;101112.81;5051599;28;20207;-75
2022/03/08 04:44:13;;;;;;;10.27;9.37;;;;;;;-0.35;78.82;101123.84;5045107;28;20253;-75
2022/03/08 04:46:41;;;;;;;10.87;9.87;;;;;;;-0.45;78.67;101135.47;5040081;28;20207;-76
2022/03/08 04:49:07;;;;;;;10.67;9.67;;;;;;;-0.56;78.57;101158.13;5031460;28;20773;-76
2022/03/08 04:51:34;;;;;;;9.33;8.53;;;;;;;-0.53;78.86;101152.25;5031457;28;20618;-76
2022/03/08 04:54:00;;;;;;;9.80;8.87;;;;;;;-0.57;78.94;101147.84;5031738;28;20234;-76
2022/03/08 04:56:28;;;;;;;10.63;9.53;;;;;;;-0.56;78.30;101157.25;5031642;28;20216;-76
2022/03/08 04:58:56;;;;;;;10.60;9.60;;;;;;;-0.52;77.36;101169.38;5031666;28;20231;-76
2022/03/08 05:01:23;;;;;;;10.03;9.13;;;;;;;-0.68;77.89;101181.59;5031298;28;20293;-75
2022/03/08 05:03:49;;;;;;;9.63;8.83;;;;;;;-0.69;78.12;101174.75;5031442;28;20887;-76
2022/03/08 05:06:16;;;;;;;11.30;10.27;;;;;;;-0.65;78.59;101147.53;5031676;28;20544;-75
2022/03/08 05:08:43;;;;;;;10.33;9.43;;;;;;;-0.58;78.41;101141.81;5031496;28;20635;-75
2022/03/08 05:11:09;;;;;;;11.17;10.07;;;;;;;-0.61;78.34;101150.28;5031279;28;20701;-76
2022/03/08 05:13:38;;;;;;;10.50;9.50;;;;;;;-0.59;78.11;101160.59;5031235;28;20207;-76
2022/03/08 05:16:05;;;;;;;10.83;9.83;;;;;;;-0.57;77.91;101176.03;5043918;28;20749;-76
2022/03/08 05:18:31;;;;;;;12.37;11.17;;;;;;;-0.59;77.89;101170.84;5046565;28;20231;-75
2022/03/08 05:20:58;;;;;;;12.80;11.50;;;;;;;-0.55;77.71;101169.28;5054902;28;20207;-76
2022/03/08 05:23:27;;;;;;;11.83;10.77;;;;;;;-0.59;77.93;101173.41;5055224;28;20207;-76
2022/03/08 05:25:54;;;;;;;12.43;11.33;;;;;;;-0.71;77.93;101172.94;5054627;28;20665;-76
2022/03/08 05:28:20;;;;;;;11.87;10.70;;;;;;;-0.82;78.69;101155.44;5054870;28;20234;-76
2022/03/08 05:30:48;;;;;;;11.93;10.70;;;;;;;-0.73;78.49;101147.25;5054449;28;20555;-76
2022/03/08 05:33:14;;;;;;;12.63;11.37;;;;;;;-0.74;78.83;101147.19;5054965;28;20544;-75
2022/03/08 05:35:41;;;;;;;11.67;10.47;;;;;;;-0.68;78.70;101150.84;5054449;28;20227;-76
2022/03/08 05:38:07;;;;;;;12.67;11.47;;;;;;;-0.83;78.47;101156.28;5054969;28;20287;-76
2022/03/08 05:40:34;;;;;;;12.37;11.27;;;;;;;-0.83;78.47;101163.09;5054550;28;20210;-76
2022/03/08 05:43:01;;;;;;;12.43;11.23;;;;;;;-0.77;78.31;101168.44;5054687;28;20723;-76
2022/03/08 05:45:28;;;;;;;13.10;11.50;;;;;;;-0.82;78.49;101163.13;5050335;28;20211;-76
2022/03/08 05:47:56;;;;;;;12.47;11.27;;;;;;;-0.75;78.43;101169.38;5045995;28;20218;-76
2022/03/08 05:50:23;;;;;;;13.47;11.37;;;;;;;-0.93;79.20;101159.28;5054285;28;20260;-76
2022/03/08 05:52:49;;;;;;;12.03;10.93;;;;;;;-0.86;78.69;101157.84;5054569;28;20209;-75
2022/03/08 05:55:16;;;;;;;12.87;11.67;;;;;;;-0.91;78.90;101151.63;5054360;28;20277;-76
2022/03/08 05:57:42;;;;;;;12.17;11.00;;;;;;;-0.96;78.80;101161.72;5054264;28;20226;-75
2022/03/08 06:00:10;;;;;;;12.10;11.00;;;;;;;-0.98;78.79;101171.03;5054129;28;20633;-75
2022/03/08 06:02:37;;;;;;;11.77;10.67;;;;;;;-1.08;78.91;101176.63;5054027;28;20300;-76
2022/03/08 06:05:05;;;;;;;11.73;10.47;;;;;;;-1.07;78.81;101169.00;5054286;28;20202;-76
2022/03/08 06:07:32;;;;;;;11.97;10.80;;;;;;;-1.06;78.63;101169.88;5054174;28;20635;-75
2022/03/08 06:09:59;;;;;;;13.70;12.30;;;;;;;-1.13;79.39;101170.41;5053884;28;20617;-76
2022/03/08 06:12:26;;;;;;;12.70;11.50;;;;;;;-1.18;79.64;101162.56;5053921;28;20669;-76
2022/03/08 06:14:52;;;;;;;14.77;11.50;;;;;;;-1.21;79.97;101158.19;5052665;28;20234;-76
2022/03/08 06:17:19;;;;;;;13.73;12.33;;;;;;;-1.22;80.14;101156.44;5042444;28;20279;-75
2022/03/08 06:19:45;;;;;;;12.50;11.20;;;;;;;-1.21;80.42;101144.50;5053696;28;20219;-76
2022/03/08 06:22:13;;;;;;;12.20;11.00;;;;;;;-1.21;80.56;101139.38;5053822;28;20262;-75
2022/03/08 06:24:39;;;;;;;11.20;10.10;;;;;;;-1.24;80.93;101135.00;5053915;28;20264;-75
2022/03/08 06:27:06;;;;;;;12.13;10.47;;;;;;;-1.22;80.87;101128.25;5052887;28;20218;-76
2022/03/08 06:29:33;;;;;;;11.87;10.77;;;;;;;-1.26;81.36;101128.94;5053616;28;20211;-75
2022/03/08 06:31:59;;;;;;;11.63;10.63;;;;;;;-1.18;81.58;101116.44;5053423;28;20686;-76
2022/03/08 06:34:26;;;;;;;12.80;11.63;;;;;;;-1.09;81.75;101119.38;5053753;28;20299;-75
2022/03/08 06:36:52;;;;;;;13.33;12.00;;;;;;;-1.00;82.04;101101.78;5053617;28;20283;-76
2022/03/08 06:39:20;;;;;;;13.90;11.67;;;;;;;-0.85;81.95;101098.09;5053697;28;20231;-76
2022/03/08 06:41:47;;;;;;;15.70;11.27;;;;;;;-0.81;81.88;101094.81;5054001;28;20210;-76
2022/03/08 06:44:13;;;;;;;12.60;11.47;;;;;;;-0.86;81.35;101110.00;5053541;28;20277;-76
2022/03/08 06:46:43;;;;;;;14.83;12.27;;;;;;;-0.97;81.39;101112.97;5045317;28;20233;-76
2022/03/08 06:49:10;;;;;;;15.00;12.93;;;;;;;-1.02;81.36;101107.69;5049498;28;20218;-76
2022/03/08 06:51:37;;;;;;;16.43;14.13;;;;;;;-1.16;81.68;101111.41;5053209;28;20211;-76
2022/03/08 06:54:04;;;;;;;14.77;13.17;;;;;;;-1.07;81.56;101092.13;5053421;28;20226;-76
2022/03/08 06:56:33;;;;;;;14.30;12.90;;;;;;;-0.91;81.76;101091.03;5053179;28;20206;-75
2022/03/08 06:59:00;;;;;;;14.10;12.80;;;;;;;-0.78;81.59;101087.22;5053018;28;20268;-76
2022/03/08 07:01:26;;;;;;;14.60;13.10;;;;;;;-0.65;81.22;101086.88;5052812;28;20660;-75
2022/03/08 07:03:53;;;;;;;17.00;14.13;;;;;;;-0.60;80.77;101100.72;5023216;28;20642;-76
2022/03/08 07:06:19;;;;;;;14.93;13.33;;;;;;;-0.60;80.48;101107.56;5021824;28;20191;-76
2022/03/08 07:08:45;;;;;;;14.13;12.73;;;;;;;-0.78;80.35;101125.69;5022167;28;20217;-75
2022/03/08 07:11:12;;;;;;;20.40;18.70;;;;;;;-0.87;80.56;101125.34;5022293;28;20204;-76
2022/03/08 07:13:40;;;;;;;35.40;30.60;;;;;;;-0.82;80.95;101111.88;5021696;28;20275;-76
2022/03/08 07:16:07;;;;;;;16.43;14.63;;;;;;;-0.70;80.98;101108.03;5027742;28;20269;-76
2022/03/08 07:18:33;;;;;;;15.57;12.60;;;;;;;-0.62;80.61;101119.44;5030566;28;20227;-76
2022/03/08 07:21:02;;;;;;;15.40;14.07;;;;;;;-0.57;80.76;101125.63;5021835;28;20204;-76
2022/03/08 07:23:28;;;;;;;14.90;13.50;;;;;;;-0.52;80.45;101128.34;5021945;28;20211;-75
2022/03/08 07:25:55;;;;;;;14.10;12.70;;;;;;;-0.62;80.80;101130.56;5023301;28;20205;-76
2022/03/08 07:28:21;;;;;;;16.80;15.20;;;;;;;-0.70;81.61;101106.34;5021930;28;20265;-76
2022/03/08 07:30:49;;;;;;;16.77;15.03;;;;;;;-0.66;82.03;101097.94;5021867;28;20245;-76
2022/03/08 07:33:15;;;;;;;15.53;14.07;;;;;;;-0.56;82.21;101081.22;5023425;28;20627;-76
2022/03/08 07:35:42;;;;;;;14.97;13.60;;;;;;;-0.54;82.31;101094.97;5021932;28;20696;-75
2022/03/08 07:38:09;;;;;;;13.10;12.07;;;;;;;-0.50;82.42;101098.50;5021396;28;20219;-76
2022/03/08 07:40:36;;;;;;;15.33;13.77;;;;;;;-0.52;82.79;101082.19;5023053;28;20287;-76
2022/03/08 07:43:02;;;;;;;14.23;12.83;;;;;;;-0.40;82.95;101080.06;5026589;28;20199;-76
2022/03/08 07:45:29;;;;;;;12.93;11.50;;;;;;;-0.26;82.85;101078.00;5049750;28;20207;-76
2022/03/08 07:47:57;;;;;;;14.00;12.57;;;;;;;-0.15;82.32;101092.09;5054030;28;20215;-76
2022/03/08 07:50:25;;;;;;;13.80;12.50;;;;;;;-0.07;82.49;101093.22;5027792;28;20201;-76
2022/03/08 07:52:52;;;;;;;15.50;13.50;;;;;;;0.03;82.12;101106.38;5032126;28;20709;-76
2022/03/08 07:55:19;;;;;;;15.33;13.63;;;;;;;0.09;82.22;101099.75;5032006;28;20760;-76
2022/03/08 07:57:45;;;;;;;14.60;13.30;;;;;;;0.12;81.84;101109.25;5032218;28;20227;-75
2022/03/08 08:00:12;;;;;;;18.23;14.33;;;;;;;0.16;82.15;101114.56;5032341;28;20345;-75
2022/03/08 08:02:39;;;;;;;16.43;13.67;;;;;;;0.23;82.42;101107.06;5032368;28;20203;-77
2022/03/08 08:05:07;;;;;;;17.07;13.63;;;;;;;0.34;82.29;101105.75;5032318;28;20204;-76
2022/03/08 08:07:34;;;;;;;15.23;13.53;;;;;;;0.43;82.90;101097.44;5031779;28;20230;-76
2022/03/08 08:10:01;;;;;;;15.37;13.97;;;;;;;0.53;82.59;101089.22;5031920;28;20658;-76
2022/03/08 08:12:27;;;;;;;15.57;14.07;;;;;;;0.65;82.79;101091.31;5032005;28;20297;-76
2022/03/08 08:14:53;;;;;;;15.70;14.13;;;;;;;0.70;82.70;101095.78;5032109;28;20349;-76
2022/03/08 08:17:20;;;;;;;15.07;13.37;;;;;;;0.83;82.79;101091.88;5051704;28;20286;-83
2022/03/08 08:19:47;;;;;;;14.97;13.47;;;;;;;0.90;82.70;101098.09;5065727;28;20212;-82
2022/03/08 08:22:14;;;;;;;16.83;15.17;;;;;;;0.91;82.63;101100.72;5064436;28;20206;-83
2022/03/08 08:24:41;;;;;;;15.97;14.27;;;;;;;0.93;82.84;101095.59;5064757;28;20617;-84
2022/03/08 08:27:07;;;;;;;16.40;14.63;;;;;;;0.94;82.46;101097.38;5064006;28;20251;-83
2022/03/08 08:29:34;;;;;;;14.83;13.43;;;;;;;0.99;83.17;101090.66;5064600;28;20237;-81
2022/03/08 08:32:00;;;;;;;14.17;12.73;;;;;;;1.07;83.19;101078.94;5026357;28;20204;-83
2022/03/08 08:34:27;;;;;;;16.83;12.47;;;;;;;1.13;82.78;101081.69;5024808;28;20203;-83
2022/03/08 08:36:54;;;;;;;12.43;11.33;;;;;;;1.18;82.09;101095.53;5023985;28;20230;-83
2022/03/08 08:39:23;;;;;;;14.97;13.47;;;;;;;1.24;82.99;101091.41;5025177;28;20795;-83
2022/03/08 08:41:49;;;;;;;16.17;14.63;;;;;;;1.31;84.61;101068.50;5024579;28;20208;-78
2022/03/08 08:47:37;;;;;;;15.20;13.80;;;;;;;1.53;84.55;101057.09;5025249;28;20275;-84
2022/03/08 08:50:04;;;;;;;14.43;13.03;;;;;;;1.63;83.28;101059.94;5062501;28;20239;-84
2022/03/08 08:52:31;;;;;;;15.20;12.73;;;;;;;1.67;82.62;101085.78;5065209;28;20222;-84
2022/03/08 08:54:59;;;;;;;16.13;13.37;;;;;;;1.74;82.51;101110.84;5063259;28;20226;-84
2022/03/08 08:57:25;;;;;;;17.50;12.87;;;;;;;1.80;82.04;101107.56;5060739;28;20227;-84
2022/03/08 08:59:52;;;;;;;14.53;12.93;;;;;;;1.88;81.61;101107.78;5060947;28;20292;-83
2022/03/08 09:02:18;;;;;;;18.60;10.90;;;;;;;1.98;80.69;101113.25;5060421;28;20207;-84
2022/03/08 09:04:45;;;;;;;10.57;8.60;;;;;;;2.11;77.72;101165.06;5060871;28;20255;-85
2022/03/08 09:07:11;;;;;;;11.97;10.77;;;;;;;2.20;78.87;101193.66;5059583;28;20214;-84
2022/03/08 09:09:38;;;;;;;13.87;10.57;;;;;;;2.31;76.97;101222.28;5060542;28;20208;-85
2022/03/08 09:12:07;;;;;;;9.67;8.87;;;;;;;2.42;75.97;101245.75;5061409;28;20205;-86
2022/03/08 09:14:33;;;;;;;8.03;7.33;;;;;;;2.52;76.15;101260.66;5061624;28;20257;-85
2022/03/08 09:17:00;;;;;;;6.60;6.00;;;;;;;2.61;73.29;101283.19;5053009;28;20224;-84
2022/03/08 09:19:27;;;;;;;10.33;9.17;;;;;;;2.70;73.66;101325.56;5043331;28;20233;-84
2022/03/08 09:21:53;;;;;;;11.43;10.30;;;;;;;2.83;75.37;101295.81;5041519;28;20623;-85
2022/03/08 09:24:20;;;;;;;11.87;10.00;;;;;;;2.92;74.39;101280.59;5041554;28;20233;-84
2022/03/08 09:26:47;;;;;;;12.07;10.10;;;;;;;2.99;74.00;101291.94;5043365;28;20212;-85
2022/03/08 09:29:14;;;;;;;10.50;9.50;;;;;;;3.06;73.78;101303.31;5043451;28;20266;-85
2022/03/08 09:31:41;;;;;;;10.90;9.83;;;;;;;3.07;73.49;101316.25;5043195;28;20241;-82
2022/03/08 09:34:07;;;;;;;10.83;9.80;;;;;;;3.13;72.42;101330.97;5043033;28;20206;-83
2022/03/08 09:36:34;;;;;;;11.17;9.77;;;;;;;3.25;71.88;101341.63;5044469;28;20230;-84
2022/03/08 09:39:00;;;;;;;11.87;10.73;;;;;;;3.25;72.46;101357.13;5044805;28;20228;-82
2022/03/08 09:41:27;;;;;;;9.67;8.87;;;;;;;3.31;72.56;101344.38;5043965;28;20625;-83
2022/03/08 09:43:54;;;;;;;9.60;8.63;;;;;;;3.37;72.05;101359.16;5045181;28;20220;-82
2022/03/08 09:46:23;;;;;;;8.20;7.50;;;;;;;3.44;71.47;101368.75;5052186;28;20208;-83
2022/03/08 09:48:49;;;;;;;7.17;6.47;;;;;;;3.47;71.00;101380.88;5058024;28;20217;-82
2022/03/08 09:51:16;;;;;;;6.93;6.23;;;;;;;3.51;71.16;101378.41;5065566;28;20231;-82
2022/03/08 09:53:44;;;;;;;6.20;5.63;;;;;;;3.55;71.17;101375.09;5064366;28;20270;-81
2022/03/08 09:56:11;;;;;;;4.53;4.13;;;;;;;3.64;70.10;101378.72;5066559;28;20225;-80
2022/03/08 09:58:39;;;;;;;6.17;4.17;;;;;;;3.70;69.71;101395.22;5064331;28;20287;-81
2022/03/08 10:01:06;;;;;;;3.83;3.50;;;;;;;3.77;67.65;101435.00;5060969;28;20204;-80
2022/03/08 10:03:36;;;;;;;4.40;3.87;;;;;;;3.80;66.24;101489.28;5062194;28;20201;-80
2022/03/08 10:06:03;;;;;;;4.07;3.77;;;;;;;3.88;66.12;101503.28;5060764;28;20205;-81
2022/03/08 10:08:30;;;;;;;4.43;3.50;;;;;;;3.94;66.35;101516.38;5059843;28;20218;-80
2022/03/08 10:10:59;;;;;;;4.40;4.10;;;;;;;4.00;64.82;101543.16;5059140;28;20205;-81
2022/03/08 10:13:28;;;;;;;4.67;4.27;;;;;;;4.01;65.73;101543.22;5058247;28;20563;-80
2022/03/08 10:16:09;;;;;;;4.67;4.07;;;;;;;4.09;65.71;101533.94;5054043;28;20817;-80
2022/03/08 10:18:40;;;;;;;4.37;3.97;;;;;;;4.14;65.08;101555.63;5047089;28;20244;-79
2022/03/08 10:21:25;;;;;;;5.73;4.17;;;;;;;4.20;64.83;101566.94;5037960;28;20264;-79
2022/03/08 10:23:52;;;;;;;4.40;3.50;;;;;;;4.26;64.77;101570.56;5039112;28;20213;-79
2022/03/08 10:26:20;;;;;;;3.27;2.97;;;;;;;4.34;63.66;101584.56;5039501;28;20209;-79
2022/03/08 10:28:47;;;;;;;3.97;3.57;;;;;;;4.37;63.00;101618.22;5038991;28;20718;-80
2022/03/08 10:31:15;;;;;;;6.33;3.83;;;;;;;4.44;63.77;101611.50;5041076;28;20248;-79
2022/03/08 10:33:45;;;;;;;3.67;3.37;;;;;;;4.50;63.40;101615.94;5037663;28;20214;-80
2022/03/08 10:36:14;;;;;;;5.20;4.07;;;;;;;4.55;63.04;101622.97;5038272;28;20238;-79
2022/03/08 10:38:41;;;;;;;2.97;2.77;;;;;;;4.61;62.51;101627.44;5038551;28;20233;-79
2022/03/08 10:41:17;;;;;;;3.73;3.27;;;;;;;4.65;62.10;101646.47;5037451;28;20209;-79
2022/03/08 10:43:49;;;;;;;4.10;3.70;;;;;;;4.72;63.39;101644.09;5038329;28;20300;-79
2022/03/08 10:46:19;;;;;;;1.87;1.73;;;;;;;4.79;60.52;101660.63;5044812;28;20573;-80
2022/03/08 10:48:49;;;;;;;2.50;2.30;;;;;;;4.87;58.92;101726.34;5050429;28;20222;-79
2022/03/08 10:51:17;;;;;;;2.40;2.20;;;;;;;4.95;58.60;101761.06;5056791;28;20212;-80
2022/03/08 10:53:44;;;;;;;2.83;2.60;;;;;;;5.02;59.51;101746.56;5056641;28;20212;-79
2022/03/08 10:56:12;;;;;;;2.70;2.40;;;;;;;5.12;59.06;101748.56;5057147;28;20275;-80
2022/03/08 10:58:49;;;;;;;2.47;2.27;;;;;;;5.20;58.64;101764.28;5058045;28;20252;-81
2022/03/08 11:01:16;;;;;;;2.13;1.93;;;;;;;5.32;57.95;101782.69;5057610;28;20326;-80
2022/03/08 11:03:56;;;;;;;2.10;1.70;;;;;;;5.46;57.12;101788.19;5056149;28;20213;-79
2022/03/08 11:06:23;;;;;;;2.10;2.00;;;;;;;5.53;57.07;101813.41;5056120;28;20209;-81
2022/03/08 11:08:50;;;;;;;1.73;1.63;;;;;;;5.56;56.97;101803.09;5055808;28;20226;-80
2022/03/08 11:11:19;;;;;;;1.77;1.67;;;;;;;5.69;56.08;101825.00;5055123;28;20260;-81
2022/03/08 11:13:50;;;;;;;2.07;1.47;;;;;;;5.76;54.14;101876.13;5055447;28;20232;-80
2022/03/08 11:16:18;;;;;;;4.90;1.33;;;;;;;5.84;53.60;101909.97;5047996;28;20244;-80
2022/03/08 11:18:45;;;;;;;1.50;1.40;;;;;;;5.91;52.52;101968.91;5046563;28;20237;-79
2022/03/08 11:21:14;;;;;;;1.33;1.23;;;;;;;5.99;51.70;101997.66;5047665;28;20616;-80